Nearby METAR Reports

 

KCXP - Carson City, Nevada, USA
Distance from station: WSW 2mi, 3km
Updated: Wed, Jun-28-2017 11:55pm PDT
Clear
Clear
 Wind from calm
Wind: Calm
Temperature: 59°F , 15°C
Dew Point: 32°F , 0°C
Humidity: 36%
Barometer: 30.07 inHg , 1018.3 hPa
Clouds: Clear
Visibility: 10 miles , 16 km
2017/06/29 06:55 KCXP 290655Z AUTO 00000KT 10SM CLR 15/00 A3007 RMK AO2
KRNO - Reno, Nevada, USA
Distance from station: N 21mi, 34km
Updated: Wed, Jun-28-2017 11:55pm PDT
Clear
Clear
 Wind from W
Wind: W 3 mph , 6 km/h
Temperature: 72°F , 22°C
Dew Point: 37°F , 3°C
Humidity: 29%
Barometer: 30.04 inHg , 1017.3 hPa
Clouds: Clear
Visibility: 10 miles , 16 km
2017/06/29 06:55 KRNO 290655Z 27003KT 10SM CLR 22/03 A3004 RMK AO2 SLP116 T02170033
 
KTRK - Truckee Tahoe, California, USA
Distance from station: WNW 24mi, 38km
Updated: Wed, Jun-28-2017 11:55pm PDT
Clear
Clear
 Wind from calm
Wind: Calm
Temperature: 45°F , 7°C
Dew Point: 34°F , 1°C
Humidity: 66%
Barometer: 30.17 inHg , 1021.7 hPa
Clouds: Clear
Visibility: 10 miles , 16 km
2017/06/29 06:55 KTRK 290655Z AUTO 00000KT 10SM CLR 07/01 A3017 RMK AO2
KTVL - South Lake Tahoe, California, USA
Distance from station: SW 26mi, 42km
Updated: Wed, Jun-28-2017 11:53pm PDT
Clear
Clear
 Wind from SSE
Wind: SSE 6 mph , 9 km/h
Temperature: 50°F , 10°C
Wind Chill: 48°F , 9°C
Dew Point: 37°F , 3°C
Humidity: 62%
Barometer: 30.18 inHg , 1022 hPa
Clouds: Clear
Visibility: 10 miles , 16 km
2017/06/29 06:53 KTVL 290653Z AUTO 16005KT 10SM CLR 10/03 A3018 RMK AO2 SLP164 T01000033
 
KRTS - Reno/Stead, Nevada, USA
Distance from station: NNW 34mi, 54km
Updated: Wed, Jun-28-2017 11:55pm PDT
Clear
Clear
 Wind from NW
Wind: NW 7 mph , 11 km/h
Temperature: 64°F , 18°C
Dew Point: 37°F , 3°C
Humidity: 37%
Barometer: 30.08 inHg , 1018.6 hPa
Clouds: Clear
Visibility: 10 miles , 16 km
2017/06/29 06:55 KRTS 290655Z AUTO 32006KT 10SM CLR 18/03 A3008 RMK AO2
KBLU - Emigrant Gap, California, USA
Distance from station: W 54mi, 87km
Updated: Wed, Jun-28-2017 11:52pm PDT
Clear
Clear
 Wind from E
Wind: E 3 mph , 6 km/h
Temperature: 61°F , 16°C
Dew Point: 46°F , 8°C
Humidity: 59%
Barometer: 30.13 inHg , 1020.3 hPa
Clouds: Clear
Visibility: 10 miles , 16 km
2017/06/29 06:52 KBLU 290652Z AUTO 09003KT 10SM CLR 16/08 A3013 RMK AO2 SLP120 T01560078 TSNO
 
KNFL - Fallon Nas, Nevada, USA
Distance from station: ENE 56mi, 89km
Updated: Wed, Jun-28-2017 11:56pm PDT
Clear
Clear
 Wind from S
Wind: S 7 mph , 11 km/h
Temperature: 64°F , 18°C
Dew Point: 37°F , 3°C
Humidity: 37%
Barometer: 29.98 inHg , 1015.2 hPa
Clouds: Clear
Visibility: 10 miles , 16 km
2017/06/29 06:56 KNFL 290656Z 17006KT 10SM CLR 18/03 A2998 RMK AO2 SLP122 T01830028
KBAN - Bridgeport(Mcmwt, California, USA
Distance from station: S 60mi, 96km
Updated: Wed, Jun-28-2017 11:52pm PDT
Clear
Clear
 Wind from calm
Wind: Calm
Temperature: 50°F , 10°C
Dew Point: 21°F , -6°C
Humidity: 32%
Barometer: 30.19 inHg , 1022.4 hPa
Clouds: Clear
Visibility: 10 miles , 16 km
2017/06/29 06:52 KBAN 290652Z AUTO 00000KT 10SM CLR 10/M06 A3019 RMK AO2 SLP126 T01001061 $
 
KPVF - Placerville, California, USA
Distance from station: WSW 66mi, 105km
Updated: Wed, Jun-28-2017 11:55pm PDT
Clear
Clear
 Wind from E
Wind: E 6 mph , 9 km/h
Temperature: 68°F , 20°C
Dew Point: 46°F , 8°C
Humidity: 46%
Barometer: 29.97 inHg , 1014.9 hPa
Clouds: Clear
Visibility: 10 miles , 16 km
2017/06/29 06:55 KPVF 290655Z AUTO 08005KT 10SM CLR 20/08 A2997 RMK AO1
KGOO - Grass Valley, California, USA
Distance from station: W 70mi, 112km
Updated: Fri, May-05-2017 6:55am PDT
NOT Current
Clear
Clear
 Wind from SE
Wind: SE 3 mph , 6 km/h
Temperature: 59°F , 15°C
Dew Point: 46°F , 8°C
Humidity: 63%
Barometer: 29.93 inHg , 1013.5 hPa
Clouds: Clear
Visibility: 10 miles , 16 km
2017/05/05 13:55 KGOO 051355Z AUTO 14003KT 10SM CLR 15/08 A2993 RMK AO1
 
KAUN - Auburn Muni, California, USA
Distance from station: WSW 76mi, 123km
Updated: Wed, Jun-28-2017 11:55pm PDT
Clear
Clear
 Wind from E
Wind: E 7 mph , 11 km/h
Temperature: 72°F , 22°C
Dew Point: 54°F , 12°C
Humidity: 53%
Barometer: 29.90 inHg , 1012.5 hPa
Clouds: Clear
Visibility: 10 miles , 16 km
2017/06/29 06:55 KAUN 290655Z AUTO 08006KT 10SM CLR 22/12 A2990 RMK AO1
KLOL - Lovelock, Nevada, USA
Distance from station: NE 85mi, 137km
Updated: Wed, Jun-28-2017 11:53pm PDT
Clear
Clear
 Wind from ENE
Wind: ENE 9 mph , 15 km/h
Temperature: 70°F , 21°C
Dew Point: 28°F , -2°C
Humidity: 21%
Barometer: 29.97 inHg , 1014.9 hPa
Clouds: Clear
Visibility: 10 miles , 16 km
2017/06/29 06:53 KLOL 290653Z AUTO 06008KT 10SM CLR 21/M02 A2997 RMK AO2 SLP107 T02061022 TSNO
 
KLHM - Lincoln, California, USA
Distance from station: WSW 91mi, 146km
Updated: Wed, Jun-28-2017 11:55pm PDT
Clear
Clear
 Wind from SSE
Wind: SSE 7 mph , 11 km/h
Temperature: 72°F , 22°C
Dew Point: 54°F , 12°C
Humidity: 53%
Barometer: 29.83 inHg , 1010.2 hPa
Clouds: Clear
Visibility: 10 miles , 16 km
2017/06/29 06:55 KLHM 290655Z AUTO 15006KT 10SM CLR 22/12 A2983 RMK AO1
KBAB - Beale Afb/Marysv, California, USA
Distance from station: W 92mi, 148km
Updated: Wed, Jun-28-2017 11:58pm PDT
Clear
Clear
 Wind from ESE
Wind: ESE 5 mph , 7 km/h
Temperature: 72°F , 22°C
Dew Point: 59°F , 15°C
Humidity: 65%
Barometer: 29.82 inHg , 1009.8 hPa
Clouds: Clear
Visibility: 10 miles , 16 km
2017/06/29 06:58 KBAB 290658Z AUTO 11004KT 10SM CLR 22/15 A2982 RMK AO2 SLP100 T02240146 $
 
KMHR - Mather Field, California, USA
Distance from station: WSW 97mi, 156km
Updated: Wed, Jun-28-2017 11:30pm PDT
Clear
Clear
 Wind from SSE
Wind: SSE 6 mph , 9 km/h
Temperature: 64°F , 18°C
Dew Point: 54°F , 12°C
Humidity: 68%
Barometer: 29.85 inHg , 1010.8 hPa
Clouds: Clear
Visibility: 10 miles , 16 km
2017/06/29 06:30 KMHR 290630Z 15005KT 10SM SKC 18/12 A2985
KMCC - Mcclellan Afb, California, USA
Distance from station: WSW 99mi, 159km
Updated: Wed, Jun-28-2017 11:55pm PDT
Clear
Clear
 Wind from SSE
Wind: SSE 8 mph , 13 km/h
Temperature: 66°F , 19°C
Dew Point: 52°F , 11°C
Humidity: 60%
Barometer: 29.86 inHg , 1011.2 hPa
Clouds: Clear
Visibility: 10 miles , 16 km
2017/06/29 06:55 KMCC 290655Z AUTO 16007KT 10SM CLR 19/11 A2986 RMK AO2
 
KMYV - Marysville, California, USA
Distance from station: W 100mi, 161km
Updated: Wed, Jun-28-2017 11:53pm PDT
Clear
Clear
 Wind from SSE
Wind: SSE 8 mph , 13 km/h
Temperature: 72°F , 22°C
Dew Point: 57°F , 14°C
Humidity: 61%
Barometer: 29.83 inHg , 1010.2 hPa
Clouds: Clear
Visibility: 10 miles , 16 km
2017/06/29 06:53 KMYV 290653Z AUTO 16007KT 10SM CLR 22/14 A2983 RMK AO2 SLP106 T02170144